sensor_id;sensor_type;location;lat;lon;timestamp;pressure;altitude;pressure_sealevel;temperature;humidity
20444;BME280;10381;53.730;10.010;2022-10-16T00:03:36;100595.81;;;12.34;100.00
20444;BME280;10381;53.730;10.010;2022-10-16T00:07:36;100595.44;;;12.29;100.00
20444;BME280;10381;53.730;10.010;2022-10-16T00:11:38;100610.06;;;12.33;100.00
20444;BME280;10381;53.730;10.010;2022-10-16T00:15:39;100603.78;;;12.34;100.00
20444;BME280;10381;53.730;10.010;2022-10-16T00:19:39;100606.66;;;12.23;100.00
20444;BME280;10381;53.730;10.010;2022-10-16T00:23:40;100609.94;;;12.35;100.00
20444;BME280;10381;53.730;10.010;2022-10-16T00:27:40;100610.38;;;12.30;100.00
20444;BME280;10381;53.730;10.010;2022-10-16T00:31:41;100600.91;;;12.28;100.00
20444;BME280;10381;53.730;10.010;2022-10-16T00:35:41;100606.53;;;12.25;100.00
20444;BME280;10381;53.730;10.010;2022-10-16T00:39:42;100624.66;;;12.29;100.00
20444;BME280;10381;53.730;10.010;2022-10-16T00:47:46;100604.94;;;12.32;100.00
20444;BME280;10381;53.730;10.010;2022-10-16T00:51:51;100611.50;;;12.46;100.00
20444;BME280;10381;53.730;10.010;2022-10-16T00:55:53;100603.09;;;12.50;100.00
20444;BME280;10381;53.730;10.010;2022-10-16T00:59:54;100593.06;;;12.62;100.00
20444;BME280;10381;53.730;10.010;2022-10-16T01:03:54;100589.16;;;12.48;100.00
20444;BME280;10381;53.730;10.010;2022-10-16T01:08:18;100581.84;;;12.32;100.00
20444;BME280;10381;53.730;10.010;2022-10-16T01:12:35;100581.53;;;12.35;100.00
20444;BME280;10381;53.730;10.010;2022-10-16T01:16:43;100582.38;;;12.36;100.00
20444;BME280;10381;53.730;10.010;2022-10-16T01:20:51;100582.22;;;12.38;100.00
20444;BME280;10381;53.730;10.010;2022-10-16T01:24:55;100576.22;;;12.35;100.00
20444;BME280;10381;53.730;10.010;2022-10-16T01:33:28;100582.16;;;12.29;100.00
20444;BME280;10381;53.730;10.010;2022-10-16T01:37:45;100581.63;;;12.26;100.00
20444;BME280;10381;53.730;10.010;2022-10-16T01:41:55;100575.47;;;12.25;100.00
20444;BME280;10381;53.730;10.010;2022-10-16T01:46:00;100570.31;;;12.24;100.00
20444;BME280;10381;53.730;10.010;2022-10-16T01:50:03;100580.63;;;12.09;100.00
20444;BME280;10381;53.730;10.010;2022-10-16T01:54:07;100579.09;;;12.06;100.00
20444;BME280;10381;53.730;10.010;2022-10-16T01:58:08;100581.25;;;12.03;100.00
20444;BME280;10381;53.730;10.010;2022-10-16T02:02:10;100581.59;;;11.90;100.00
20444;BME280;10381;53.730;10.010;2022-10-16T02:06:13;100583.56;;;11.78;100.00
20444;BME280;10381;53.730;10.010;2022-10-16T02:10:13;100585.94;;;11.81;100.00
20444;BME280;10381;53.730;10.010;2022-10-16T02:14:13;100584.97;;;11.82;100.00
20444;BME280;10381;53.730;10.010;2022-10-16T02:18:14;100583.28;;;11.91;100.00
20444;BME280;10381;53.730;10.010;2022-10-16T02:22:27;100577.75;;;11.75;100.00
20444;BME280;10381;53.730;10.010;2022-10-16T02:26:41;100589.50;;;11.72;100.00
20444;BME280;10381;53.730;10.010;2022-10-16T02:30:49;100599.03;;;11.65;100.00
20444;BME280;10381;53.730;10.010;2022-10-16T02:34:51;100596.31;;;11.75;100.00
20444;BME280;10381;53.730;10.010;2022-10-16T02:38:52;100588.41;;;11.65;100.00
20444;BME280;10381;53.730;10.010;2022-10-16T02:42:54;100583.22;;;11.63;100.00
20444;BME280;10381;53.730;10.010;2022-10-16T02:46:54;100595.09;;;11.69;100.00
20444;BME280;10381;53.730;10.010;2022-10-16T02:50:54;100590.56;;;11.51;100.00
20444;BME280;10381;53.730;10.010;2022-10-16T02:54:55;100592.03;;;11.64;100.00
20444;BME280;10381;53.730;10.010;2022-10-16T02:58:55;100586.09;;;11.52;100.00
20444;BME280;10381;53.730;10.010;2022-10-16T03:02:55;100576.75;;;11.48;100.00
20444;BME280;10381;53.730;10.010;2022-10-16T03:06:56;100591.47;;;11.33;100.00
20444;BME280;10381;53.730;10.010;2022-10-16T03:10:56;100586.03;;;11.34;100.00
20444;BME280;10381;53.730;10.010;2022-10-16T03:14:57;100587.47;;;11.19;100.00
20444;BME280;10381;53.730;10.010;2022-10-16T03:18:57;100584.53;;;11.22;100.00
20444;BME280;10381;53.730;10.010;2022-10-16T03:22:58;100581.94;;;11.02;100.00
20444;BME280;10381;53.730;10.010;2022-10-16T03:26:58;100582.75;;;11.13;100.00
20444;BME280;10381;53.730;10.010;2022-10-16T03:30:58;100586.25;;;11.03;100.00
20444;BME280;10381;53.730;10.010;2022-10-16T03:34:58;100603.00;;;11.14;100.00
20444;BME280;10381;53.730;10.010;2022-10-16T03:38:59;100587.09;;;11.04;100.00
20444;BME280;10381;53.730;10.010;2022-10-16T03:42:59;100592.94;;;11.07;100.00
20444;BME280;10381;53.730;10.010;2022-10-16T03:46:59;100592.22;;;11.15;100.00
20444;BME280;10381;53.730;10.010;2022-10-16T03:51:00;100598.94;;;11.09;100.00
20444;BME280;10381;53.730;10.010;2022-10-16T03:55:02;100601.00;;;11.16;100.00
20444;BME280;10381;53.730;10.010;2022-10-16T03:59:03;100604.66;;;11.15;100.00
20444;BME280;10381;53.730;10.010;2022-10-16T04:03:03;100611.44;;;11.27;100.00
20444;BME280;10381;53.730;10.010;2022-10-16T04:07:03;100615.13;;;11.16;100.00
20444;BME280;10381;53.730;10.010;2022-10-16T04:11:04;100629.22;;;11.17;100.00
20444;BME280;10381;53.730;10.010;2022-10-16T04:15:04;100629.91;;;11.19;100.00
20444;BME280;10381;53.730;10.010;2022-10-16T04:19:05;100631.13;;;11.24;100.00
20444;BME280;10381;53.730;10.010;2022-10-16T04:23:05;100635.72;;;11.32;100.00
20444;BME280;10381;53.730;10.010;2022-10-16T04:27:05;100632.78;;;11.25;100.00
20444;BME280;10381;53.730;10.010;2022-10-16T04:31:06;100632.81;;;11.16;100.00
20444;BME280;10381;53.730;10.010;2022-10-16T04:35:07;100623.78;;;11.08;100.00
20444;BME280;10381;53.730;10.010;2022-10-16T04:39:07;100636.91;;;11.10;100.00
20444;BME280;10381;53.730;10.010;2022-10-16T04:43:08;100650.44;;;11.17;100.00
20444;BME280;10381;53.730;10.010;2022-10-16T04:47:09;100653.34;;;11.04;100.00
20444;BME280;10381;53.730;10.010;2022-10-16T04:51:09;100654.63;;;11.09;100.00
20444;BME280;10381;53.730;10.010;2022-10-16T04:55:10;100660.06;;;10.98;100.00
20444;BME280;10381;53.730;10.010;2022-10-16T04:59:10;100660.47;;;11.03;100.00
20444;BME280;10381;53.730;10.010;2022-10-16T05:03:10;100654.78;;;10.98;100.00
20444;BME280;10381;53.730;10.010;2022-10-16T05:07:10;100658.22;;;11.18;100.00
20444;BME280;10381;53.730;10.010;2022-10-16T05:11:11;100651.66;;;11.22;100.00
20444;BME280;10381;53.730;10.010;2022-10-16T05:15:11;100646.50;;;11.30;100.00
20444;BME280;10381;53.730;10.010;2022-10-16T05:19:12;100651.78;;;11.30;100.00
20444;BME280;10381;53.730;10.010;2022-10-16T05:23:12;100660.69;;;11.39;100.00
20444;BME280;10381;53.730;10.010;2022-10-16T05:27:12;100664.34;;;11.38;100.00
20444;BME280;10381;53.730;10.010;2022-10-16T05:31:18;100674.22;;;11.46;100.00
20444;BME280;10381;53.730;10.010;2022-10-16T05:35:19;100679.09;;;11.50;100.00
20444;BME280;10381;53.730;10.010;2022-10-16T05:39:20;100680.03;;;11.59;100.00
20444;BME280;10381;53.730;10.010;2022-10-16T05:43:20;100682.25;;;11.64;100.00
20444;BME280;10381;53.730;10.010;2022-10-16T05:47:20;100684.25;;;11.62;100.00
20444;BME280;10381;53.730;10.010;2022-10-16T05:51:21;100692.47;;;11.59;100.00
20444;BME280;10381;53.730;10.010;2022-10-16T05:55:21;100680.88;;;11.60;100.00
20444;BME280;10381;53.730;10.010;2022-10-16T05:59:21;100683.81;;;11.57;100.00
20444;BME280;10381;53.730;10.010;2022-10-16T06:03:22;100688.84;;;11.60;100.00
20444;BME280;10381;53.730;10.010;2022-10-16T06:07:22;100692.63;;;11.57;100.00
20444;BME280;10381;53.730;10.010;2022-10-16T06:11:28;100692.19;;;11.62;100.00
20444;BME280;10381;53.730;10.010;2022-10-16T06:15:29;100702.53;;;11.55;100.00
20444;BME280;10381;53.730;10.010;2022-10-16T06:19:29;100696.63;;;11.61;100.00
20444;BME280;10381;53.730;10.010;2022-10-16T06:23:29;100706.13;;;11.64;100.00
20444;BME280;10381;53.730;10.010;2022-10-16T06:27:30;100710.19;;;11.68;100.00
20444;BME280;10381;53.730;10.010;2022-10-16T06:31:30;100707.22;;;11.71;100.00
20444;BME280;10381;53.730;10.010;2022-10-16T06:35:33;100708.19;;;11.80;100.00
20444;BME280;10381;53.730;10.010;2022-10-16T06:39:33;100714.88;;;11.84;100.00
20444;BME280;10381;53.730;10.010;2022-10-16T06:43:33;100715.84;;;11.92;100.00
20444;BME280;10381;53.730;10.010;2022-10-16T06:47:36;100728.84;;;11.96;100.00
20444;BME280;10381;53.730;10.010;2022-10-16T06:51:37;100732.69;;;12.11;100.00
20444;BME280;10381;53.730;10.010;2022-10-16T06:55:40;100733.72;;;12.28;100.00
20444;BME280;10381;53.730;10.010;2022-10-16T06:59:41;100742.31;;;12.40;100.00
20444;BME280;10381;53.730;10.010;2022-10-16T07:03:43;100734.91;;;12.61;100.00
20444;BME280;10381;53.730;10.010;2022-10-16T07:07:43;100737.44;;;12.98;100.00
20444;BME280;10381;53.730;10.010;2022-10-16T07:11:43;100739.13;;;12.99;100.00
20444;BME280;10381;53.730;10.010;2022-10-16T07:15:44;100730.44;;;13.15;100.00
20444;BME280;10381;53.730;10.010;2022-10-16T07:19:44;100746.63;;;13.22;100.00
20444;BME280;10381;53.730;10.010;2022-10-16T07:23:45;100742.03;;;13.50;100.00
20444;BME280;10381;53.730;10.010;2022-10-16T07:27:45;100751.34;;;13.72;100.00
20444;BME280;10381;53.730;10.010;2022-10-16T07:31:46;100756.41;;;13.57;100.00
20444;BME280;10381;53.730;10.010;2022-10-16T07:35:52;100765.13;;;13.68;100.00
20444;BME280;10381;53.730;10.010;2022-10-16T07:39:52;100762.69;;;13.56;100.00
20444;BME280;10381;53.730;10.010;2022-10-16T07:43:53;100767.91;;;13.66;100.00
20444;BME280;10381;53.730;10.010;2022-10-16T07:47:55;100775.88;;;13.84;100.00
20444;BME280;10381;53.730;10.010;2022-10-16T07:51:55;100774.84;;;13.77;100.00
20444;BME280;10381;53.730;10.010;2022-10-16T07:56:03;100781.28;;;13.48;100.00
20444;BME280;10381;53.730;10.010;2022-10-16T08:00:04;100798.53;;;13.62;100.00
20444;BME280;10381;53.730;10.010;2022-10-16T08:04:05;100797.84;;;13.60;100.00
20444;BME280;10381;53.730;10.010;2022-10-16T08:08:05;100795.19;;;13.42;100.00
20444;BME280;10381;53.730;10.010;2022-10-16T08:12:05;100809.50;;;13.41;100.00
20444;BME280;10381;53.730;10.010;2022-10-16T08:16:06;100811.16;;;13.42;100.00
20444;BME280;10381;53.730;10.010;2022-10-16T08:20:08;100813.75;;;13.52;100.00
20444;BME280;10381;53.730;10.010;2022-10-16T08:24:09;100809.28;;;13.52;100.00
20444;BME280;10381;53.730;10.010;2022-10-16T08:28:10;100819.41;;;13.75;100.00
20444;BME280;10381;53.730;10.010;2022-10-16T08:32:11;100817.66;;;13.83;100.00
20444;BME280;10381;53.730;10.010;2022-10-16T08:36:11;100814.63;;;13.78;100.00
20444;BME280;10381;53.730;10.010;2022-10-16T08:40:31;100813.56;;;13.97;100.00
20444;BME280;10381;53.730;10.010;2022-10-16T08:44:45;100811.78;;;13.80;100.00
20444;BME280;10381;53.730;10.010;2022-10-16T08:48:53;100817.66;;;14.10;100.00
20444;BME280;10381;53.730;10.010;2022-10-16T08:52:55;100822.06;;;14.27;100.00
20444;BME280;10381;53.730;10.010;2022-10-16T08:56:57;100819.56;;;14.60;100.00
20444;BME280;10381;53.730;10.010;2022-10-16T09:01:03;100816.63;;;14.37;100.00
20444;BME280;10381;53.730;10.010;2022-10-16T09:05:23;100829.06;;;14.28;100.00
20444;BME280;10381;53.730;10.010;2022-10-16T09:09:58;100841.28;;;14.39;100.00
20444;BME280;10381;53.730;10.010;2022-10-16T09:14:11;100841.22;;;14.57;100.00
20444;BME280;10381;53.730;10.010;2022-10-16T09:22:27;100838.00;;;14.96;100.00
20444;BME280;10381;53.730;10.010;2022-10-16T09:26:28;100838.97;;;14.78;100.00
20444;BME280;10381;53.730;10.010;2022-10-16T09:30:29;100847.84;;;14.95;100.00
20444;BME280;10381;53.730;10.010;2022-10-16T09:34:36;100844.56;;;15.01;100.00
20444;BME280;10381;53.730;10.010;2022-10-16T09:38:40;100830.72;;;15.06;100.00
20444;BME280;10381;53.730;10.010;2022-10-16T09:42:41;100829.41;;;15.26;100.00
20444;BME280;10381;53.730;10.010;2022-10-16T09:46:41;100831.09;;;15.36;100.00
20444;BME280;10381;53.730;10.010;2022-10-16T09:50:41;100839.94;;;15.28;100.00
20444;BME280;10381;53.730;10.010;2022-10-16T09:54:53;100846.13;;;15.45;100.00
20444;BME280;10381;53.730;10.010;2022-10-16T09:58:56;100854.78;;;15.55;100.00
20444;BME280;10381;53.730;10.010;2022-10-16T10:02:57;100861.50;;;15.84;100.00
20444;BME280;10381;53.730;10.010;2022-10-16T10:06:57;100872.84;;;15.94;100.00
20444;BME280;10381;53.730;10.010;2022-10-16T10:10:58;100870.53;;;15.83;100.00
20444;BME280;10381;53.730;10.010;2022-10-16T10:15:05;100866.50;;;15.87;100.00
20444;BME280;10381;53.730;10.010;2022-10-16T10:19:14;100861.50;;;15.75;100.00
20444;BME280;10381;53.730;10.010;2022-10-16T10:23:25;100876.19;;;15.80;100.00
20444;BME280;10381;53.730;10.010;2022-10-16T10:32:19;100875.59;;;16.42;100.00
20444;BME280;10381;53.730;10.010;2022-10-16T10:36:35;100871.47;;;16.14;100.00
20444;BME280;10381;53.730;10.010;2022-10-16T10:40:45;100866.97;;;16.15;100.00
20444;BME280;10381;53.730;10.010;2022-10-16T10:45:12;100876.16;;;16.12;100.00
20444;BME280;10381;53.730;10.010;2022-10-16T10:57:55;100887.94;;;16.43;100.00
20444;BME280;10381;53.730;10.010;2022-10-16T11:06:30;100896.22;;;16.80;100.00
20444;BME280;10381;53.730;10.010;2022-10-16T11:14:50;100914.41;;;16.85;100.00
20444;BME280;10381;53.730;10.010;2022-10-16T11:23:28;100913.16;;;17.35;100.00
20444;BME280;10381;53.730;10.010;2022-10-16T11:27:36;100921.81;;;17.68;100.00
20444;BME280;10381;53.730;10.010;2022-10-16T11:31:45;100930.06;;;17.04;100.00
20444;BME280;10381;53.730;10.010;2022-10-16T11:40:05;100920.75;;;16.92;100.00
20444;BME280;10381;53.730;10.010;2022-10-16T11:44:22;100932.84;;;16.72;100.00
20444;BME280;10381;53.730;10.010;2022-10-16T11:48:38;100939.41;;;16.45;100.00
20444;BME280;10381;53.730;10.010;2022-10-16T11:52:59;100949.31;;;16.28;100.00
20444;BME280;10381;53.730;10.010;2022-10-16T11:57:09;100966.63;;;16.56;100.00
20444;BME280;10381;53.730;10.010;2022-10-16T12:01:32;100957.25;;;16.69;100.00
20444;BME280;10381;53.730;10.010;2022-10-16T12:09:46;100964.38;;;16.93;100.00
20444;BME280;10381;53.730;10.010;2022-10-16T12:13:46;100973.06;;;17.03;100.00
20444;BME280;10381;53.730;10.010;2022-10-16T12:17:49;100970.47;;;16.70;100.00
20444;BME280;10381;53.730;10.010;2022-10-16T12:21:51;100979.00;;;16.82;100.00
20444;BME280;10381;53.730;10.010;2022-10-16T12:25:57;101004.22;;;16.88;100.00
20444;BME280;10381;53.730;10.010;2022-10-16T12:30:03;100992.75;;;16.38;100.00
20444;BME280;10381;53.730;10.010;2022-10-16T12:34:22;101011.22;;;16.97;100.00
20444;BME280;10381;53.730;10.010;2022-10-16T12:38:31;101007.31;;;17.16;100.00
20444;BME280;10381;53.730;10.010;2022-10-16T12:42:35;101006.31;;;17.79;100.00
20444;BME280;10381;53.730;10.010;2022-10-16T12:46:39;101015.84;;;17.51;100.00
20444;BME280;10381;53.730;10.010;2022-10-16T12:50:39;101024.91;;;17.50;100.00
20444;BME280;10381;53.730;10.010;2022-10-16T12:54:41;101025.50;;;17.29;100.00
20444;BME280;10381;53.730;10.010;2022-10-16T13:07:48;101035.53;;;17.66;100.00
20444;BME280;10381;53.730;10.010;2022-10-16T13:29:22;101081.03;;;17.82;100.00
20444;BME280;10381;53.730;10.010;2022-10-16T13:33:30;101090.84;;;17.51;100.00
20444;BME280;10381;53.730;10.010;2022-10-16T13:37:32;101095.75;;;17.78;100.00
20444;BME280;10381;53.730;10.010;2022-10-16T13:41:32;101103.56;;;17.96;100.00
20444;BME280;10381;53.730;10.010;2022-10-16T13:45:32;101109.84;;;17.72;100.00
20444;BME280;10381;53.730;10.010;2022-10-16T13:49:33;101114.63;;;17.54;100.00
20444;BME280;10381;53.730;10.010;2022-10-16T13:53:34;101117.97;;;17.56;100.00
20444;BME280;10381;53.730;10.010;2022-10-16T13:57:35;101121.75;;;17.14;100.00
20444;BME280;10381;53.730;10.010;2022-10-16T14:01:43;101120.78;;;16.90;100.00
20444;BME280;10381;53.730;10.010;2022-10-16T14:05:48;101137.84;;;16.97;100.00
20444;BME280;10381;53.730;10.010;2022-10-16T14:09:50;101140.44;;;17.38;100.00
20444;BME280;10381;53.730;10.010;2022-10-16T14:13:51;101148.47;;;17.46;100.00
20444;BME280;10381;53.730;10.010;2022-10-16T14:17:53;101158.59;;;16.95;100.00
20444;BME280;10381;53.730;10.010;2022-10-16T14:21:54;101160.75;;;17.08;100.00
20444;BME280;10381;53.730;10.010;2022-10-16T14:26:05;101160.25;;;16.88;100.00
20444;BME280;10381;53.730;10.010;2022-10-16T14:30:16;101168.31;;;16.96;100.00
20444;BME280;10381;53.730;10.010;2022-10-16T14:34:29;101171.31;;;16.93;100.00
20444;BME280;10381;53.730;10.010;2022-10-16T14:38:31;101181.94;;;16.52;100.00
20444;BME280;10381;53.730;10.010;2022-10-16T14:42:32;101179.63;;;16.66;100.00
20444;BME280;10381;53.730;10.010;2022-10-16T14:46:37;101184.16;;;16.65;100.00
20444;BME280;10381;53.730;10.010;2022-10-16T14:50:38;101195.69;;;16.57;100.00
20444;BME280;10381;53.730;10.010;2022-10-16T14:54:38;101192.63;;;16.52;100.00
20444;BME280;10381;53.730;10.010;2022-10-16T14:58:39;101186.94;;;16.39;100.00
20444;BME280;10381;53.730;10.010;2022-10-16T15:02:39;101202.31;;;16.29;100.00
20444;BME280;10381;53.730;10.010;2022-10-16T15:06:39;101210.00;;;16.32;100.00
20444;BME280;10381;53.730;10.010;2022-10-16T15:10:42;101211.34;;;16.36;100.00
20444;BME280;10381;53.730;10.010;2022-10-16T15:14:43;101208.63;;;16.28;100.00
20444;BME280;10381;53.730;10.010;2022-10-16T15:18:43;101217.94;;;16.07;100.00
20444;BME280;10381;53.730;10.010;2022-10-16T15:22:44;101209.84;;;15.91;100.00
20444;BME280;10381;53.730;10.010;2022-10-16T15:26:44;101218.66;;;15.83;100.00
20444;BME280;10381;53.730;10.010;2022-10-16T15:30:46;101217.84;;;15.65;100.00
20444;BME280;10381;53.730;10.010;2022-10-16T15:34:49;101213.84;;;15.34;100.00
20444;BME280;10381;53.730;10.010;2022-10-16T15:38:49;101217.34;;;15.17;100.00
20444;BME280;10381;53.730;10.010;2022-10-16T15:42:49;101222.72;;;14.99;100.00
20444;BME280;10381;53.730;10.010;2022-10-16T15:46:50;101224.66;;;14.89;100.00
20444;BME280;10381;53.730;10.010;2022-10-16T15:50:50;101240.50;;;14.73;100.00
20444;BME280;10381;53.730;10.010;2022-10-16T15:54:50;101239.81;;;14.43;100.00
20444;BME280;10381;53.730;10.010;2022-10-16T15:58:54;101244.06;;;14.36;100.00
20444;BME280;10381;53.730;10.010;2022-10-16T16:02:54;101253.81;;;14.45;100.00
20444;BME280;10381;53.730;10.010;2022-10-16T16:06:55;101261.94;;;14.25;100.00
20444;BME280;10381;53.730;10.010;2022-10-16T16:10:59;101266.38;;;13.97;100.00
20444;BME280;10381;53.730;10.010;2022-10-16T16:14:59;101267.34;;;13.49;100.00
20444;BME280;10381;53.730;10.010;2022-10-16T16:18:59;101285.03;;;13.02;100.00
20444;BME280;10381;53.730;10.010;2022-10-16T16:23:00;101287.19;;;12.57;100.00
20444;BME280;10381;53.730;10.010;2022-10-16T16:27:00;101300.84;;;12.43;100.00
20444;BME280;10381;53.730;10.010;2022-10-16T16:31:00;101301.34;;;12.18;100.00
20444;BME280;10381;53.730;10.010;2022-10-16T16:35:02;101318.53;;;11.92;100.00
20444;BME280;10381;53.730;10.010;2022-10-16T16:39:02;101333.69;;;11.60;100.00
20444;BME280;10381;53.730;10.010;2022-10-16T16:43:03;101336.72;;;11.23;100.00
20444;BME280;10381;53.730;10.010;2022-10-16T16:47:05;101344.28;;;10.95;100.00
20444;BME280;10381;53.730;10.010;2022-10-16T16:51:08;101359.06;;;10.65;100.00
20444;BME280;10381;53.730;10.010;2022-10-16T16:55:09;101377.84;;;10.51;100.00
20444;BME280;10381;53.730;10.010;2022-10-16T16:59:16;101378.56;;;10.42;100.00
20444;BME280;10381;53.730;10.010;2022-10-16T17:03:16;80811.81;;;10.31;100.00
20444;BME280;10381;53.730;10.010;2022-10-16T17:07:17;101400.53;;;10.20;100.00
20444;BME280;10381;53.730;10.010;2022-10-16T17:11:19;101417.72;;;10.14;100.00
20444;BME280;10381;53.730;10.010;2022-10-16T17:15:20;101428.66;;;10.10;100.00
20444;BME280;10381;53.730;10.010;2022-10-16T17:19:20;101441.91;;;10.10;100.00
20444;BME280;10381;53.730;10.010;2022-10-16T17:23:21;101444.72;;;9.84;100.00
20444;BME280;10381;53.730;10.010;2022-10-16T17:27:21;101450.13;;;9.82;100.00
20444;BME280;10381;53.730;10.010;2022-10-16T17:31:33;101453.19;;;9.65;100.00
20444;BME280;10381;53.730;10.010;2022-10-16T17:35:42;101465.63;;;9.52;100.00
20444;BME280;10381;53.730;10.010;2022-10-16T17:39:43;101477.50;;;9.46;100.00
20444;BME280;10381;53.730;10.010;2022-10-16T17:43:43;101479.31;;;9.33;100.00
20444;BME280;10381;53.730;10.010;2022-10-16T17:47:44;101492.84;;;9.41;100.00
20444;BME280;10381;53.730;10.010;2022-10-16T17:51:44;101509.78;;;9.38;100.00
20444;BME280;10381;53.730;10.010;2022-10-16T17:55:45;101525.69;;;9.13;100.00
20444;BME280;10381;53.730;10.010;2022-10-16T17:59:45;101527.53;;;9.00;100.00
20444;BME280;10381;53.730;10.010;2022-10-16T18:03:50;101536.28;;;9.00;100.00
20444;BME280;10381;53.730;10.010;2022-10-16T18:07:51;101541.69;;;8.99;100.00
20444;BME280;10381;53.730;10.010;2022-10-16T18:11:52;101539.66;;;8.89;100.00
20444;BME280;10381;53.730;10.010;2022-10-16T18:16:03;101540.75;;;9.00;100.00
20444;BME280;10381;53.730;10.010;2022-10-16T18:20:05;101560.91;;;9.26;100.00
20444;BME280;10381;53.730;10.010;2022-10-16T18:24:06;101565.38;;;9.50;100.00
20444;BME280;10381;53.730;10.010;2022-10-16T18:28:06;101561.56;;;9.54;100.00
20444;BME280;10381;53.730;10.010;2022-10-16T18:32:07;101578.19;;;9.56;100.00
20444;BME280;10381;53.730;10.010;2022-10-16T18:36:08;101589.53;;;9.45;100.00
20444;BME280;10381;53.730;10.010;2022-10-16T18:40:09;101590.41;;;9.20;100.00
20444;BME280;10381;53.730;10.010;2022-10-16T18:44:09;101600.88;;;9.09;100.00
20444;BME280;10381;53.730;10.010;2022-10-16T18:48:10;101605.88;;;9.26;100.00
20444;BME280;10381;53.730;10.010;2022-10-16T18:52:10;101607.13;;;8.95;100.00
20444;BME280;10381;53.730;10.010;2022-10-16T18:56:11;101611.66;;;9.06;100.00
20444;BME280;10381;53.730;10.010;2022-10-16T19:00:14;101611.44;;;8.96;100.00
20444;BME280;10381;53.730;10.010;2022-10-16T19:04:16;101624.03;;;8.92;100.00
20444;BME280;10381;53.730;10.010;2022-10-16T19:08:17;101625.81;;;8.92;100.00
20444;BME280;10381;53.730;10.010;2022-10-16T19:12:17;101625.25;;;8.61;100.00
20444;BME280;10381;53.730;10.010;2022-10-16T19:16:22;101615.63;;;8.33;100.00
20444;BME280;10381;53.730;10.010;2022-10-16T19:20:23;101610.97;;;8.24;100.00
20444;BME280;10381;53.730;10.010;2022-10-16T19:24:23;101617.59;;;8.17;100.00
20444;BME280;10381;53.730;10.010;2022-10-16T19:28:24;101636.97;;;8.30;100.00
20444;BME280;10381;53.730;10.010;2022-10-16T19:32:24;101641.53;;;8.14;100.00
20444;BME280;10381;53.730;10.010;2022-10-16T19:36:27;101644.69;;;8.06;100.00
20444;BME280;10381;53.730;10.010;2022-10-16T19:40:27;101639.56;;;8.03;100.00
20444;BME280;10381;53.730;10.010;2022-10-16T19:44:28;101642.97;;;8.32;100.00
20444;BME280;10381;53.730;10.010;2022-10-16T19:48:28;101657.19;;;8.44;100.00
20444;BME280;10381;53.730;10.010;2022-10-16T19:52:29;101655.53;;;8.43;100.00
20444;BME280;10381;53.730;10.010;2022-10-16T19:56:30;101653.63;;;8.45;100.00
20444;BME280;10381;53.730;10.010;2022-10-16T20:00:31;101659.38;;;8.37;100.00
20444;BME280;10381;53.730;10.010;2022-10-16T20:04:31;101674.94;;;8.42;100.00
20444;BME280;10381;53.730;10.010;2022-10-16T20:08:33;101674.31;;;8.24;100.00
20444;BME280;10381;53.730;10.010;2022-10-16T20:12:33;101670.66;;;8.53;100.00
20444;BME280;10381;53.730;10.010;2022-10-16T20:16:33;101676.41;;;8.73;100.00
20444;BME280;10381;53.730;10.010;2022-10-16T20:20:41;101667.94;;;8.68;100.00
20444;BME280;10381;53.730;10.010;2022-10-16T20:24:42;101674.34;;;8.51;100.00
20444;BME280;10381;53.730;10.010;2022-10-16T20:28:43;101695.97;;;8.43;100.00
20444;BME280;10381;53.730;10.010;2022-10-16T20:32:43;101698.53;;;8.45;100.00
20444;BME280;10381;53.730;10.010;2022-10-16T20:36:45;101705.41;;;8.33;100.00
20444;BME280;10381;53.730;10.010;2022-10-16T20:40:46;101709.31;;;8.27;100.00
20444;BME280;10381;53.730;10.010;2022-10-16T20:44:47;101717.75;;;8.47;100.00
20444;BME280;10381;53.730;10.010;2022-10-16T20:48:48;101717.56;;;8.50;100.00
20444;BME280;10381;53.730;10.010;2022-10-16T20:52:48;101709.13;;;8.58;100.00
20444;BME280;10381;53.730;10.010;2022-10-16T20:56:49;101711.72;;;8.72;100.00
20444;BME280;10381;53.730;10.010;2022-10-16T21:00:52;101713.56;;;8.57;100.00
20444;BME280;10381;53.730;10.010;2022-10-16T21:04:52;101699.81;;;8.52;100.00
20444;BME280;10381;53.730;10.010;2022-10-16T21:08:53;101694.56;;;8.65;100.00
20444;BME280;10381;53.730;10.010;2022-10-16T21:12:54;101712.19;;;8.51;100.00
20444;BME280;10381;53.730;10.010;2022-10-16T21:16:54;101712.91;;;8.53;100.00
20444;BME280;10381;53.730;10.010;2022-10-16T21:20:55;101747.63;;;8.62;100.00
20444;BME280;10381;53.730;10.010;2022-10-16T21:24:55;101753.09;;;8.59;100.00
20444;BME280;10381;53.730;10.010;2022-10-16T21:29:04;101756.41;;;8.33;100.00
20444;BME280;10381;53.730;10.010;2022-10-16T21:33:05;101770.66;;;8.31;100.00
20444;BME280;10381;53.730;10.010;2022-10-16T21:37:06;101781.84;;;8.63;100.00
20444;BME280;10381;53.730;10.010;2022-10-16T21:45:17;101766.84;;;8.64;100.00
20444;BME280;10381;53.730;10.010;2022-10-16T21:49:18;101777.00;;;8.70;100.00
20444;BME280;10381;53.730;10.010;2022-10-16T21:53:18;101769.69;;;8.88;100.00
20444;BME280;10381;53.730;10.010;2022-10-16T21:57:19;101782.78;;;8.89;100.00
20444;BME280;10381;53.730;10.010;2022-10-16T22:01:21;101771.13;;;8.79;100.00